Time;durP1;ratioP1;P1;durP2;ratioP2;P2;SDS_P1;SDS_P2;PMS_P1;PMS_P2;Temp;Humidity;BMP_temperature;BMP_pressure;BME280_temperature;BME280_humidity;BME280_pressure;Samples;Min_cycle;Max_cycle;Signal;HPM_P1;HPM_P2
2023/07/07 07:01:26;;;;;;;0.15;0.15;;;28.80;99.90;33.80;101797.00;;;;6166009;22;1362482;-65
2023/07/07 07:04:00;;;;;;;0.10;0.10;;;29.20;99.90;35.60;101790.00;;;;6217810;23;20151;-65
2023/07/07 07:06:28;;;;;;;0.10;0.10;;;30.70;99.90;35.00;101783.00;;;;6218082;23;20229;-64
2023/07/07 07:09:00;;;;;;;0.40;0.40;;;31.00;99.90;35.90;101795.00;;;;6217019;23;20488;-64
2023/07/07 07:11:33;;;;;;;0.10;0.10;;;31.40;99.90;35.00;101802.00;;;;6217288;23;20134;-64
2023/07/07 07:14:01;;;;;;;0.10;0.10;;;31.00;99.90;33.70;101815.00;;;;6217657;23;20146;-65
2023/07/07 07:16:31;;;;;;;0.10;0.10;;;30.40;99.90;34.60;101807.00;;;;6217397;23;20146;-65
2023/07/07 07:19:05;;;;;;;0.10;0.10;;;30.40;99.90;33.30;101810.00;;;;6217474;23;20225;-65
2023/07/07 07:21:41;;;;;;;0.13;0.13;;;30.10;99.90;35.30;101809.00;;;;6217175;23;20138;-65
2023/07/07 07:24:10;;;;;;;0.68;0.68;;;30.50;99.90;33.00;101809.00;;;;6217157;23;20548;-64
2023/07/07 07:26:40;;;;;;;0.30;0.30;;;30.30;99.90;34.50;101807.00;;;;6217328;23;20134;-65
2023/07/07 07:29:14;;;;;;;0.10;0.10;;;30.30;99.90;34.70;101801.00;;;;6216277;23;20212;-64
2023/07/07 07:31:43;;;;;;;0.10;0.10;;;30.50;99.90;32.40;101825.00;;;;6190549;23;20158;-64
2023/07/07 07:34:39;;;;;;;0.10;0.10;;;29.70;99.90;32.20;101823.00;;;;6217756;23;20143;-64
2023/07/07 07:37:06;;;;;;;0.40;0.40;;;29.60;99.90;34.20;101803.00;;;;6204014;23;20209;-64
2023/07/07 07:39:32;;;;;;;0.10;0.10;;;30.30;99.90;34.90;101805.00;;;;6216780;23;20142;-64
2023/07/07 07:42:03;;;;;;;0.20;0.20;;;30.50;99.90;35.30;101804.00;;;;6217264;23;20225;-64
2023/07/07 07:44:34;;;;;;;0.20;0.20;;;31.00;99.90;32.60;101822.00;;;;6217158;23;20178;-64
2023/07/07 07:47:03;;;;;;;0.32;0.30;;;30.10;99.90;33.40;101817.00;;;;6217105;23;20138;-64
2023/07/07 07:49:36;;;;;;;0.10;0.10;;;29.80;99.90;33.90;101815.00;;;;6217386;23;20143;-64
2023/07/07 07:52:05;;;;;;;0.30;0.30;;;29.80;99.90;33.90;101799.00;;;;6216972;23;20241;-64
2023/07/07 07:54:39;;;;;;;0.20;0.20;;;29.90;99.90;33.30;101833.00;;;;6217124;23;20142;-65
2023/07/07 07:57:05;;;;;;;0.10;0.10;;;30.20;99.90;33.80;101787.00;;;;6216687;23;20154;-64
2023/07/07 07:59:33;;;;;;;1.08;0.73;;;30.00;99.90;33.30;101822.00;;;;6190372;23;20173;-64
2023/07/07 08:02:05;;;;;;;0.20;0.20;;;29.80;99.90;32.30;101832.00;;;;6217307;23;20178;-64
2023/07/07 08:04:39;;;;;;;2.78;2.55;;;29.40;99.90;33.50;101831.00;;;;6190254;23;20146;-64
2023/07/07 08:07:05;;;;;;;0.10;0.10;;;29.80;99.90;34.90;101817.00;;;;6190380;23;20158;-64
2023/07/07 08:09:33;;;;;;;1.05;0.85;;;30.50;99.90;33.30;101832.00;;;;6190006;23;20241;-65
2023/07/07 08:12:05;;;;;;;0.28;0.28;;;30.30;99.90;33.50;101824.00;;;;6216122;23;20147;-64
2023/07/07 08:14:37;;;;;;;0.10;0.10;;;30.50;99.90;34.50;101822.00;;;;6216426;23;20579;-64
2023/07/07 08:17:11;;;;;;;0.10;0.10;;;30.20;99.90;34.50;101803.00;;;;6190231;23;20623;-64
2023/07/07 08:19:48;;;;;;;0.10;0.10;;;30.80;99.90;35.00;101823.00;;;;6215338;23;20169;-65
2023/07/07 08:22:23;;;;;;;0.00;0.00;;;31.20;99.90;36.90;101805.00;;;;6216382;23;20170;-64
2023/07/07 08:24:54;;;;;;;1.55;0.82;;;32.40;99.90;35.70;101815.00;;;;6216878;23;20146;-65
2023/07/07 08:27:25;;;;;;;0.10;0.10;;;32.10;99.10;35.60;101815.00;;;;6189745;23;20139;-64
2023/07/07 08:29:57;;;;;;;0.10;0.10;;;31.90;99.90;35.50;101823.00;;;;6216617;23;20177;-64
2023/07/07 08:32:26;;;;;;;0.10;0.10;;;31.60;99.90;35.20;101833.00;;;;6190425;23;20444;-64
2023/07/07 08:34:58;;;;;;;0.30;0.30;;;31.60;99.90;33.40;101859.00;;;;6216899;23;20139;-65
2023/07/07 08:37:31;;;;;;;0.70;0.38;;;31.50;99.90;33.60;101849.00;;;;6216211;23;20147;-64
2023/07/07 08:40:02;;;;;;;0.10;0.10;;;30.40;99.90;35.80;101840.00;;;;6216410;23;20450;-64
2023/07/07 08:42:42;;;;;;;0.60;0.60;;;31.30;99.90;32.20;101848.00;;;;6216076;23;20611;-65
2023/07/07 08:45:21;;;;;;;1.17;0.30;;;31.20;98.50;32.80;101856.00;;;;6216714;23;20233;-65
2023/07/07 08:48:10;;;;;;;0.20;0.20;;;29.80;99.60;33.20;101853.00;;;;6189671;23;20609;-65
2023/07/07 08:50:59;;;;;;;0.32;0.32;;;30.20;99.90;33.40;101841.00;;;;6190435;23;20138;-65
2023/07/07 08:54:03;;;;;;;0.45;0.45;;;30.20;99.40;33.80;101844.00;;;;6190206;23;20464;-65
2023/07/07 08:57:00;;;;;;;1.13;0.40;;;30.20;99.70;33.10;101846.00;;;;6174756;23;20492;-65
2023/07/07 08:59:32;;;;;;;0.30;0.30;;;30.30;98.80;34.40;101838.00;;;;6194092;23;20612;-65
2023/07/07 09:02:34;;;;;;;0.50;0.50;;;30.60;98.20;35.00;101831.00;;;;6246564;23;20167;-64
2023/07/07 09:05:06;;;;;;;0.20;0.20;;;31.30;98.70;32.70;101844.00;;;;6220088;23;20235;-64
2023/07/07 09:07:59;;;;;;;0.10;0.10;;;30.80;97.20;32.80;101838.00;;;;6219964;23;20164;-64
2023/07/07 09:11:00;;;;;;;0.10;0.10;;;29.60;99.90;33.50;101833.00;;;;6219970;23;20169;-64
2023/07/07 09:13:33;;;;;;;0.10;0.10;;;30.00;99.50;35.30;101829.00;;;;6246831;23;20149;-64
2023/07/07 09:16:08;;;;;;;0.47;0.32;;;31.20;99.30;34.80;101837.00;;;;6219634;23;20536;-64
2023/07/07 09:18:45;;;;;;;0.00;0.00;;;31.10;98.90;34.70;101833.00;;;;6246648;23;20145;-63
2023/07/07 09:21:42;;;;;;;0.30;0.30;;;31.10;99.30;34.30;101805.00;;;;6220248;23;20221;-64
2023/07/07 09:24:49;;;;;;;0.10;0.10;;;30.90;97.10;33.80;101829.00;;;;6220080;23;20154;-64
2023/07/07 09:27:26;;;;;;;0.60;0.47;;;30.70;95.60;35.30;101821.00;;;;6230350;23;20233;-65
2023/07/07 09:30:20;;;;;;;0.40;0.40;;;31.20;96.40;34.60;101818.00;;;;6220301;23;20168;-65
2023/07/07 09:32:47;;;;;;;0.30;0.30;;;31.00;96.60;34.20;101828.00;;;;6219600;23;20228;-65
2023/07/07 09:35:19;;;;;;;3.20;0.50;;;31.00;96.60;34.50;101834.00;;;;6246647;23;20142;-65
2023/07/07 09:38:32;;;;;;;5.07;0.95;;;31.30;97.20;34.00;101844.00;;;;6246389;23;20184;-64
2023/07/07 09:41:05;;;;;;;0.65;0.65;;;30.90;96.00;34.40;101831.00;;;;6235774;23;20185;-64
2023/07/07 09:44:30;;;;;;;0.40;0.40;;;31.00;95.20;34.10;101839.00;;;;6246579;23;20252;-64
2023/07/07 09:47:23;;;;;;;0.45;0.45;;;30.60;96.10;34.60;101828.00;;;;6195074;23;20164;-64
2023/07/07 09:50:10;;;;;;;0.30;0.30;;;30.90;95.60;32.70;101839.00;;;;6194508;23;20184;-64
2023/07/07 09:53:46;;;;;;;0.93;0.93;;;30.00;95.10;34.70;101823.00;;;;6246170;23;20141;-64
2023/07/07 09:56:22;;;;;;;0.30;0.30;;;30.60;95.50;33.80;101830.00;;;;6244623;23;20162;-64
2023/07/07 09:59:16;;;;;;;0.73;0.73;;;30.80;95.00;35.80;101820.00;;;;6219714;23;20137;-64
2023/07/07 10:01:55;;;;;;;0.73;0.50;;;31.40;95.90;33.90;101826.00;;;;6219541;23;20161;-64
2023/07/07 10:04:35;;;;;;;0.60;0.60;;;31.20;94.50;34.10;101824.00;;;;6219591;23;20164;-64
2023/07/07 10:07:14;;;;;;;0.75;0.47;;;30.80;94.50;33.60;101804.00;;;;6195157;23;20467;-64
2023/07/07 10:09:45;;;;;;;1.27;1.17;;;30.50;94.90;33.30;101843.00;;;;6219496;23;20169;-64
2023/07/07 10:12:33;;;;;;;0.77;0.32;;;30.20;95.20;34.70;101823.00;;;;6219189;23;20158;-64
2023/07/07 10:15:08;;;;;;;0.28;0.28;;;30.40;95.70;34.30;101809.00;;;;6246167;23;20229;-64
2023/07/07 10:18:27;;;;;;;0.28;0.28;;;31.00;94.90;34.80;101820.00;;;;6218110;23;20196;-64
2023/07/07 10:33:26;;;;;;;0.20;0.20;;;30.50;94.40;34.80;101814.00;;;;5070356;28;20548;-62
2023/07/07 10:35:57;;;;;;;0.17;0.17;;;31.20;94.90;35.20;101804.00;;;;5050238;28;20182;-63
2023/07/07 10:38:24;;;;;;;0.55;0.30;;;31.50;94.80;34.60;101809.00;;;;5050607;28;20186;-65
2023/07/07 10:40:55;;;;;;;0.40;0.40;;;31.60;93.10;35.80;101807.00;;;;5049003;28;20190;-65
2023/07/07 10:43:26;;;;;;;0.73;0.40;;;32.10;93.40;34.80;101811.00;;;;5050905;28;20543;-65
2023/07/07 10:45:54;;;;;;;0.50;0.50;;;31.90;93.80;34.50;101804.00;;;;5048893;28;20199;-65
2023/07/07 10:48:25;;;;;;;0.20;0.20;;;31.60;94.00;36.30;101793.00;;;;5050564;28;20190;-65
2023/07/07 10:51:46;;;;;;;0.30;0.30;;;31.90;94.00;36.40;101793.00;;;;5050148;28;20201;-65
2023/07/07 10:54:39;;;;;;;0.28;0.28;;;32.10;92.60;34.50;101803.00;;;;5042451;28;20194;-65
2023/07/07 10:57:33;;;;;;;0.90;0.50;;;31.80;91.80;36.70;101781.00;;;;5040982;28;20204;-65
2023/07/07 11:00:15;;;;;;;1.40;1.13;;;32.60;92.80;35.40;101795.00;;;;5047638;28;20174;-65
2023/07/07 11:03:31;;;;;;;0.95;0.40;;;32.80;92.60;36.90;101771.00;;;;5049876;28;20213;-65
2023/07/07 11:06:29;;;;;;;0.10;0.10;;;32.70;93.70;36.70;101809.00;;;;5049598;28;20190;-65
2023/07/07 11:09:34;;;;;;;0.10;0.10;;;33.40;92.30;35.60;101808.00;;;;5048873;28;20786;-65
2023/07/07 11:12:26;;;;;;;0.30;0.30;;;32.90;91.80;37.60;101802.00;;;;5049706;28;20202;-65
2023/07/07 11:15:14;;;;;;;0.57;0.38;;;33.30;92.00;36.10;101815.00;;;;5049830;28;20194;-65
2023/07/07 11:18:01;;;;;;;0.40;0.30;;;33.10;91.40;35.50;101816.00;;;;5073030;28;20182;-65
2023/07/07 11:20:50;;;;;;;0.17;0.17;;;32.50;91.90;36.50;101801.00;;;;5034590;28;20183;-65
2023/07/07 11:23:51;;;;;;;0.10;0.10;;;32.70;91.50;37.30;101778.00;;;;5049842;28;20272;-65
2023/07/07 11:27:11;;;;;;;0.10;0.10;;;33.00;91.50;38.70;101789.00;;;;5057329;28;20273;-65
2023/07/07 11:30:13;;;;;;;0.20;0.20;;;33.90;91.50;37.70;101792.00;;;;5047532;28;20265;-65
2023/07/07 11:33:10;;;;;;;0.32;0.32;;;34.10;90.60;37.00;101798.00;;;;5047788;28;20634;-65
2023/07/07 11:35:58;;;;;;;0.10;0.10;;;33.80;90.80;38.70;101786.00;;;;5040981;28;20269;-65
2023/07/07 11:38:34;;;;;;;0.65;0.65;;;34.30;91.10;37.10;101773.00;;;;5069241;28;20244;-65
2023/07/07 11:41:31;;;;;;;0.30;0.30;;;34.10;90.50;37.60;101792.00;;;;5047722;28;20192;-65
2023/07/07 11:44:38;;;;;;;0.20;0.20;;;34.20;90.60;35.10;101801.00;;;;5038939;28;20226;-65
2023/07/07 11:48:00;;;;;;;0.47;0.47;;;33.50;90.40;36.40;101800.00;;;;5030816;28;20197;-65
2023/07/07 11:50:48;;;;;;;0.30;0.30;;;33.40;90.70;35.60;101808.00;;;;5028502;28;20273;-65
2023/07/07 11:53:59;;;;;;;0.30;0.30;;;33.10;91.10;35.40;101791.00;;;;5034551;28;20230;-65
2023/07/07 11:57:09;;;;;;;0.57;0.57;;;32.40;90.80;36.50;101792.00;;;;5034543;28;20202;-65
2023/07/07 12:00:12;;;;;;;1.42;1.33;;;32.20;91.30;34.70;101792.00;;;;5034510;28;20237;-65
2023/07/07 12:02:50;;;;;;;0.10;0.10;;;31.50;90.80;35.30;101783.00;;;;5027750;28;20696;-65
2023/07/07 12:05:30;;;;;;;1.33;0.88;;;31.40;91.60;34.40;101784.00;;;;5034425;28;20187;-65
2023/07/07 12:08:03;;;;;;;0.35;0.35;;;31.10;91.30;34.00;101803.00;;;;5034322;28;20186;-65
2023/07/07 12:10:48;;;;;;;0.60;0.47;;;31.00;91.60;33.30;101796.00;;;;5030706;28;20537;-63
2023/07/07 12:13:58;;;;;;;1.17;0.95;;;30.60;91.00;33.90;101769.00;;;;5031055;28;20305;-63
2023/07/07 12:16:24;;;;;;;0.95;0.63;;;30.50;92.00;33.80;101781.00;;;;5063038;28;20189;-63
2023/07/07 12:19:31;;;;;;;3.60;3.17;;;30.40;91.70;33.50;101780.00;;;;5014190;28;20191;-63
2023/07/07 12:22:01;;;;;;;0.10;0.10;;;30.40;91.10;35.00;101775.00;;;;5018281;28;20198;-63
2023/07/07 12:24:30;;;;;;;2.17;1.98;;;30.70;92.20;33.80;101760.00;;;;5033930;28;20225;-63
2023/07/07 12:27:23;;;;;;;0.98;0.95;;;30.60;90.90;33.90;101764.00;;;;5033763;28;20183;-63
2023/07/07 12:29:53;;;;;;;1.40;1.17;;;30.50;91.10;34.20;101779.00;;;;5023086;28;20215;-63
2023/07/07 12:32:29;;;;;;;1.02;0.70;;;30.30;91.30;34.30;101767.00;;;;5045317;28;20222;-64
2023/07/07 12:35:26;;;;;;;0.70;0.70;;;30.40;91.90;32.60;101773.00;;;;5033873;28;20183;-63
2023/07/07 12:38:03;;;;;;;0.20;0.20;;;30.10;91.40;33.80;101760.00;;;;5023237;28;20633;-63
2023/07/07 12:40:34;;;;;;;1.00;0.60;;;30.10;92.60;32.90;101766.00;;;;5033657;28;20541;-63
2023/07/07 12:43:24;;;;;;;0.73;0.73;;;29.90;92.10;33.30;101760.00;;;;5034567;28;20652;-63
2023/07/07 12:45:53;;;;;;;0.25;0.20;;;29.70;92.00;33.90;101751.00;;;;5031602;28;20198;-63
2023/07/07 12:48:28;;;;;;;0.47;0.47;;;30.00;92.20;33.90;101746.00;;;;5034893;28;20183;-63
2023/07/07 12:51:09;;;;;;;0.65;0.32;;;30.20;92.40;34.30;101743.00;;;;5017080;28;20550;-63
2023/07/07 12:53:51;;;;;;;0.85;0.63;;;30.40;92.80;33.50;101741.00;;;;5034583;28;20234;-64
2023/07/07 12:56:24;;;;;;;1.13;0.75;;;30.30;92.40;32.50;101754.00;;;;5032071;28;20652;-63
2023/07/07 12:59:00;;;;;;;0.88;0.85;;;29.50;92.40;33.70;101744.00;;;;5032989;28;20641;-63
2023/07/07 13:01:40;;;;;;;0.10;0.10;;;29.70;92.40;33.70;101740.00;;;;5033303;28;20668;-63
2023/07/07 13:04:11;;;;;;;0.80;0.80;;;29.90;93.20;31.90;101729.00;;;;5051977;28;20187;-63
2023/07/07 13:06:56;;;;;;;2.92;1.65;;;29.30;93.20;33.00;101741.00;;;;5033228;28;20526;-64
2023/07/07 13:09:44;;;;;;;0.80;0.80;;;29.50;93.40;33.30;101742.00;;;;5034337;28;20187;-63
2023/07/07 13:12:42;;;;;;;3.63;1.05;;;29.80;93.90;31.60;101747.00;;;;5033002;28;20199;-63
2023/07/07 13:15:30;;;;;;;1.15;1.15;;;29.10;93.40;34.00;101724.00;;;;5031068;28;20179;-63
2023/07/07 13:17:57;;;;;;;1.55;1.27;;;29.50;93.70;32.20;101728.00;;;;5031184;28;20172;-64
2023/07/07 13:20:29;;;;;;;1.08;0.98;;;29.60;93.20;33.10;101716.00;;;;5034009;28;20179;-64
2023/07/07 13:23:17;;;;;;;0.75;0.30;;;29.50;92.70;33.50;101731.00;;;;5023123;28;20191;-64
2023/07/07 13:25:50;;;;;;;0.82;0.80;;;29.60;92.90;33.90;101726.00;;;;5016216;28;20193;-64
2023/07/07 13:28:56;;;;;;;0.55;0.55;;;30.00;93.70;33.70;101734.00;;;;5033957;28;20187;-64
2023/07/07 13:31:29;;;;;;;1.05;0.95;;;30.00;93.80;33.60;101735.00;;;;5029182;28;20253;-64
2023/07/07 13:34:03;;;;;;;0.90;0.85;;;29.90;93.70;33.50;101730.00;;;;5033873;28;20190;-64
2023/07/07 13:36:40;;;;;;;0.93;0.70;;;30.10;93.40;33.90;101721.00;;;;5032761;28;20183;-64
2023/07/07 13:39:14;;;;;;;2.55;1.52;;;30.10;94.10;32.70;101722.00;;;;5033629;28;20720;-64
2023/07/07 13:41:52;;;;;;;0.60;0.60;;;29.80;93.60;33.80;101696.00;;;;5032348;28;20191;-64
2023/07/07 13:44:21;;;;;;;1.10;1.05;;;29.80;94.10;32.90;101725.00;;;;5033523;28;20720;-64
2023/07/07 13:47:03;;;;;;;3.60;1.77;;;29.80;94.20;34.00;101704.00;;;;5021091;28;20205;-64
2023/07/07 13:49:31;;;;;;;1.15;0.75;;;30.20;92.80;33.70;101709.00;;;;5033664;28;20269;-64
2023/07/07 13:51:58;;;;;;;0.45;0.45;;;30.10;92.40;34.00;101705.00;;;;5033491;28;20291;-63
2023/07/07 13:54:27;;;;;;;0.75;0.70;;;30.20;92.40;33.70;101711.00;;;;5031916;28;20555;-64
2023/07/07 13:57:05;;;;;;;1.35;0.60;;;30.30;92.10;34.30;101703.00;;;;5033566;28;20642;-64
2023/07/07 13:59:34;;;;;;;0.50;0.50;;;30.30;92.40;34.20;101697.00;;;;5033300;28;20179;-64
2023/07/07 14:02:24;;;;;;;19.25;2.92;;;30.30;92.30;33.70;101708.00;;;;5032663;28;20217;-64
2023/07/07 14:05:05;;;;;;;1.45;1.25;;;30.40;91.60;33.20;101709.00;;;;5052377;28;20266;-64
2023/07/07 14:07:53;;;;;;;1.95;0.98;;;30.00;91.50;33.60;101701.00;;;;5033318;28;20187;-64
2023/07/07 14:10:38;;;;;;;0.20;0.20;;;30.00;91.70;34.10;101700.00;;;;5031813;28;20229;-64
2023/07/07 14:13:33;;;;;;;0.25;0.25;;;30.10;92.00;33.90;101698.00;;;;5020979;28;20302;-64
2023/07/07 14:16:10;;;;;;;0.32;0.32;;;30.20;91.50;34.30;101697.00;;;;5022121;28;20265;-64
2023/07/07 14:19:12;;;;;;;0.90;0.50;;;30.30;91.50;33.40;101703.00;;;;5033409;28;20190;-64
2023/07/07 14:21:42;;;;;;;1.20;0.90;;;30.30;91.60;32.90;101698.00;;;;5029184;28;20251;-64
2023/07/07 14:24:38;;;;;;;0.88;0.85;;;29.90;91.40;33.60;101699.00;;;;5033129;28;20186;-64
2023/07/07 14:27:17;;;;;;;0.40;0.40;;;29.80;91.50;32.90;101697.00;;;;5045190;28;20764;-64
2023/07/07 14:29:45;;;;;;;3.60;1.38;;;29.80;91.40;33.10;101698.00;;;;5032007;28;20243;-64
2023/07/07 14:32:41;;;;;;;0.32;0.32;;;29.80;91.90;33.70;101694.00;;;;5032902;28;20214;-64
2023/07/07 14:35:31;;;;;;;0.55;0.43;;;29.90;91.80;33.80;101687.00;;;;5008252;28;20195;-64
2023/07/07 14:38:04;;;;;;;0.20;0.20;;;30.00;91.60;34.10;101680.00;;;;5031759;28;20217;-64
2023/07/07 14:40:46;;;;;;;2.35;0.98;;;30.10;91.80;33.70;101693.00;;;;5033106;28;20286;-64
2023/07/07 14:43:24;;;;;;;0.10;0.10;;;30.20;91.00;34.10;101679.00;;;;5032939;28;20195;-64
2023/07/07 14:46:31;;;;;;;1.08;1.08;;;30.20;90.90;34.10;101669.00;;;;5031539;28;20194;-64
2023/07/07 14:49:21;;;;;;;1.02;0.73;;;30.40;91.60;34.30;101677.00;;;;5020962;28;20195;-64
2023/07/07 14:51:55;;;;;;;0.77;0.77;;;30.30;91.30;33.60;101674.00;;;;5031429;28;20564;-64
2023/07/07 14:54:28;;;;;;;1.52;1.42;;;30.20;91.30;33.40;101662.00;;;;5031407;28;20265;-64
2023/07/07 14:57:07;;;;;;;0.30;0.30;;;29.90;90.90;33.30;101663.00;;;;5033122;28;20570;-64
2023/07/07 14:59:36;;;;;;;0.30;0.25;;;29.90;91.30;34.50;101668.00;;;;5031895;28;20663;-64
2023/07/07 15:02:35;;;;;;;0.30;0.13;;;30.10;91.80;34.90;101661.00;;;;5032828;28;20191;-63
2023/07/07 15:05:25;;;;;;;3.05;1.13;;;30.40;91.60;34.10;101672.00;;;;5026847;28;20206;-64
2023/07/07 15:08:06;;;;;;;1.42;1.10;;;30.50;90.80;33.90;101667.00;;;;5055053;28;20198;-64
2023/07/07 15:10:40;;;;;;;1.45;0.75;;;30.30;91.10;34.10;101667.00;;;;5031715;28;20187;-64
2023/07/07 15:13:18;;;;;;;0.10;0.10;;;30.30;90.70;35.00;101663.00;;;;5027758;28;20231;-64
2023/07/07 15:15:51;;;;;;;0.20;0.20;;;30.50;90.80;34.70;101657.00;;;;5029008;28;20197;-64
2023/07/07 15:18:25;;;;;;;1.40;0.60;;;30.70;90.60;34.80;101655.00;;;;5033300;28;20195;-64
2023/07/07 15:20:50;;;;;;;3.30;1.33;;;30.70;91.20;33.40;101663.00;;;;5036247;28;20183;-64
2023/07/07 15:23:22;;;;;;;0.73;0.73;;;30.40;91.20;33.00;101650.00;;;;5036526;28;20199;-64
2023/07/07 15:25:53;;;;;;;0.45;0.40;;;30.20;91.40;34.10;101652.00;;;;5036102;28;20546;-64
2023/07/07 15:28:22;;;;;;;0.68;0.63;;;30.10;91.60;34.20;101649.00;;;;5036462;28;20277;-64
2023/07/07 15:30:53;;;;;;;4.43;1.50;;;30.40;91.00;32.40;101657.00;;;;5035080;28;20555;-64
2023/07/07 15:33:27;;;;;;;2.08;1.88;;;30.10;90.70;33.30;101661.00;;;;5035943;28;20480;-64
2023/07/07 15:35:54;;;;;;;1.02;0.75;;;29.90;91.30;33.60;101646.00;;;;5036226;28;20186;-64
2023/07/07 15:38:36;;;;;;;0.43;0.40;;;30.00;91.20;33.80;101643.00;;;;5034673;28;20186;-64
2023/07/07 15:41:14;;;;;;;1.13;0.57;;;30.10;91.40;34.00;101636.00;;;;5036057;28;20633;-64
2023/07/07 15:43:46;;;;;;;0.85;0.85;;;30.20;91.40;32.80;101637.00;;;;5035897;28;20215;-64
2023/07/07 15:46:37;;;;;;;0.95;0.95;;;30.00;91.70;33.10;101643.00;;;;5034418;28;20724;-64
2023/07/07 15:49:15;;;;;;;3.40;1.15;;;30.00;91.90;33.70;101640.00;;;;5034618;28;20186;-64
2023/07/07 15:51:46;;;;;;;1.55;0.75;;;30.10;91.00;34.40;101627.00;;;;5017995;28;20241;-64
2023/07/07 15:54:18;;;;;;;0.50;0.50;;;30.40;91.30;33.50;101637.00;;;;5035498;28;20248;-64
2023/07/07 15:56:48;;;;;;;1.58;0.80;;;30.40;91.10;34.20;101641.00;;;;5035436;28;20222;-64
2023/07/07 15:59:23;;;;;;;0.95;0.47;;;30.40;91.00;34.40;101628.00;;;;5035714;28;20190;-64
2023/07/07 16:02:12;;;;;;;2.17;1.13;;;30.50;91.00;34.30;101629.00;;;;5035235;28;20222;-64
2023/07/07 16:04:41;;;;;;;0.22;0.22;;;30.60;91.20;34.10;101622.00;;;;5027124;28;20187;-64
2023/07/07 16:07:34;;;;;;;0.30;0.30;;;30.40;90.90;33.60;101629.00;;;;5035031;28;20179;-64
2023/07/07 16:10:10;;;;;;;3.40;1.45;;;30.20;91.10;32.30;101626.00;;;;5035486;28;20656;-64
2023/07/07 16:12:42;;;;;;;0.30;0.30;;;29.80;91.30;33.80;101625.00;;;;5029219;28;20206;-65
2023/07/07 16:15:09;;;;;;;1.55;0.82;;;30.00;91.80;34.10;101618.00;;;;5035267;28;20183;-65
2023/07/07 16:17:36;;;;;;;1.63;1.20;;;30.10;91.90;33.30;101620.00;;;;5034219;28;20236;-64
2023/07/07 16:20:56;;;;;;;0.73;0.73;;;30.00;91.10;34.30;101605.00;;;;5034045;28;20274;-64
2023/07/07 16:23:32;;;;;;;1.30;0.47;;;30.20;91.70;34.30;101590.00;;;;5013304;28;20691;-65
2023/07/07 16:26:01;;;;;;;2.85;1.58;;;30.40;91.90;33.90;101616.00;;;;5035466;28;20183;-64
2023/07/07 16:28:30;;;;;;;0.13;0.13;;;30.20;91.60;33.60;101603.00;;;;5034962;28;20277;-62
2023/07/07 16:31:01;;;;;;;0.25;0.25;;;30.10;91.30;33.90;101601.00;;;;5034888;28;20183;-62
2023/07/07 16:33:29;;;;;;;0.80;0.80;;;30.10;91.20;34.60;101598.00;;;;5035051;28;20264;-63
2023/07/07 16:35:58;;;;;;;1.70;0.82;;;30.30;91.20;34.10;101616.00;;;;5034916;28;20597;-64
2023/07/07 16:38:35;;;;;;;1.55;0.80;;;30.30;91.30;33.90;101616.00;;;;5034799;28;20194;-64
2023/07/07 16:41:04;;;;;;;1.85;0.55;;;30.20;91.50;34.00;101614.00;;;;5032250;28;20178;-65
2023/07/07 16:43:30;;;;;;;4.18;0.98;;;30.10;91.90;33.70;101608.00;;;;5033500;28;20187;-65
2023/07/07 16:46:03;;;;;;;0.10;0.10;;;30.10;90.90;34.30;101598.00;;;;5034969;28;20186;-65
2023/07/07 16:48:34;;;;;;;0.43;0.43;;;30.10;91.50;34.30;101602.00;;;;5034712;28;20281;-65
2023/07/07 16:51:02;;;;;;;0.35;0.35;;;30.10;91.60;34.10;101604.00;;;;5031135;28;20650;-65
2023/07/07 16:53:31;;;;;;;0.63;0.32;;;30.20;91.50;33.80;101613.00;;;;5034450;28;20229;-65
2023/07/07 16:55:59;;;;;;;1.60;0.93;;;30.00;91.00;33.60;101603.00;;;;5034817;28;20187;-65
2023/07/07 16:58:33;;;;;;;0.45;0.40;;;30.00;91.00;34.20;101594.00;;;;5034448;28;20179;-65
2023/07/07 17:01:04;;;;;;;1.38;1.05;;;30.00;91.20;34.40;101596.00;;;;5034744;28;20175;-65
2023/07/07 17:03:35;;;;;;;0.22;0.20;;;30.20;91.50;34.10;101594.00;;;;5033908;28;20645;-65
2023/07/07 17:06:04;;;;;;;3.00;1.00;;;30.10;91.80;33.10;101605.00;;;;5050069;28;20187;-64
2023/07/07 17:08:33;;;;;;;0.10;0.10;;;29.90;91.50;33.70;101602.00;;;;5034135;28;20187;-64
2023/07/07 17:11:03;;;;;;;0.10;0.10;;;29.80;92.00;34.50;101587.00;;;;5034244;28;20621;-65
2023/07/07 17:13:34;;;;;;;0.60;0.60;;;30.00;92.40;33.80;101605.00;;;;5034099;28;20203;-65
2023/07/07 17:19:21;;;;;;;0.63;0.63;;;29.60;92.10;32.90;101618.00;;;;5033109;28;20199;-65
2023/07/07 17:21:55;;;;;;;0.55;0.55;;;29.50;92.80;32.40;101613.00;;;;5023157;28;20195;-65
2023/07/07 17:24:24;;;;;;;0.50;0.50;;;29.20;92.70;32.70;101599.00;;;;5033890;28;20561;-64
2023/07/07 17:26:59;;;;;;;1.85;1.75;;;29.10;93.50;32.90;101599.00;;;;5032867;28;20253;-64
2023/07/07 17:29:33;;;;;;;0.10;0.10;;;29.20;93.40;33.50;101609.00;;;;5026433;28;20186;-65
2023/07/07 17:32:02;;;;;;;1.08;0.98;;;29.50;93.70;33.40;101603.00;;;;5033630;28;20217;-65
2023/07/07 17:34:31;;;;;;;1.45;1.45;;;29.50;93.60;33.50;101608.00;;;;5032596;28;20186;-64
2023/07/07 17:37:02;;;;;;;0.30;0.30;;;29.30;94.10;33.50;101606.00;;;;5033931;28;20649;-64
2023/07/07 17:39:34;;;;;;;1.10;1.00;;;29.30;94.30;33.60;101599.00;;;;5033655;28;20187;-65
2023/07/07 17:42:09;;;;;;;0.17;0.17;;;29.50;94.50;32.50;101608.00;;;;5033294;28;20193;-64
2023/07/07 17:44:38;;;;;;;0.43;0.30;;;29.10;94.30;32.60;101609.00;;;;5032309;28;20644;-64
2023/07/07 17:47:08;;;;;;;0.22;0.22;;;29.00;94.40;32.00;101608.00;;;;5009546;28;20195;-64
2023/07/07 17:49:39;;;;;;;1.23;0.40;;;28.90;94.70;33.40;101605.00;;;;5028585;28;20178;-64
2023/07/07 17:52:10;;;;;;;3.00;1.08;;;29.10;95.00;33.20;101614.00;;;;5033791;28;20960;-65
2023/07/07 17:54:39;;;;;;;0.10;0.10;;;29.10;94.20;32.80;101613.00;;;;5033348;28;20281;-65
2023/07/07 17:57:09;;;;;;;0.10;0.10;;;28.90;94.50;32.50;101615.00;;;;5032312;28;20652;-65
2023/07/07 17:59:37;;;;;;;0.15;0.15;;;28.80;94.90;33.30;101602.00;;;;5033682;28;20186;-65
2023/07/07 18:02:09;;;;;;;0.10;0.10;;;28.90;94.80;33.10;101613.00;;;;5033422;28;20194;-65
2023/07/07 18:04:38;;;;;;;0.10;0.10;;;29.00;95.00;32.80;101605.00;;;;5028715;28;20210;-65
2023/07/07 18:07:06;;;;;;;0.10;0.10;;;28.90;95.20;33.10;101602.00;;;;5033938;28;20276;-64
2023/07/07 18:09:44;;;;;;;0.10;0.10;;;28.80;95.60;32.10;101609.00;;;;5033166;28;20660;-65
2023/07/07 18:12:12;;;;;;;0.17;0.17;;;28.70;95.70;32.60;101601.00;;;;5029532;28;20206;-65
2023/07/07 18:14:38;;;;;;;0.13;0.13;;;28.50;95.80;32.80;101597.00;;;;5033215;28;20678;-65
2023/07/07 18:17:14;;;;;;;1.15;1.05;;;28.70;95.50;32.10;101613.00;;;;5033530;28;20279;-64
2023/07/07 18:19:44;;;;;;;0.25;0.20;;;28.50;95.70;32.30;101604.00;;;;5032435;28;20324;-64
2023/07/07 18:22:31;;;;;;;0.10;0.10;;;28.50;95.80;32.40;101607.00;;;;5033389;28;20194;-65
2023/07/07 18:24:59;;;;;;;0.30;0.30;;;28.50;96.10;32.50;101601.00;;;;5031931;28;20530;-64
2023/07/07 18:27:29;;;;;;;0.15;0.15;;;28.40;96.30;32.50;101607.00;;;;5033288;28;20218;-65
2023/07/07 18:30:01;;;;;;;0.25;0.25;;;28.40;96.20;32.90;101601.00;;;;5033143;28;20193;-64
2023/07/07 18:32:36;;;;;;;1.48;1.45;;;28.50;96.40;32.30;101604.00;;;;5032819;28;20222;-65
2023/07/07 18:35:08;;;;;;;0.55;0.38;;;28.40;96.20;32.50;101602.00;;;;5032950;28;20186;-64
2023/07/07 18:37:34;;;;;;;0.20;0.20;;;28.30;96.40;31.50;101613.00;;;;5033091;28;20201;-64
2023/07/07 18:40:19;;;;;;;0.30;0.30;;;28.20;96.10;31.60;101606.00;;;;5033189;28;20178;-64
2023/07/07 18:42:56;;;;;;;0.20;0.20;;;28.00;96.70;32.20;101605.00;;;;5030725;28;20194;-64
2023/07/07 18:45:31;;;;;;;0.15;0.15;;;28.10;96.80;32.00;101607.00;;;;5032782;28;20569;-64
2023/07/07 18:48:03;;;;;;;0.10;0.10;;;28.00;96.80;32.80;101601.00;;;;5002893;28;20182;-64
2023/07/07 18:50:41;;;;;;;0.10;0.10;;;28.20;96.90;32.30;101603.00;;;;5064447;28;20183;-64
2023/07/07 18:53:13;;;;;;;0.20;0.20;;;28.40;96.50;32.50;101598.00;;;;5033711;28;20194;-64
2023/07/07 18:55:46;;;;;;;0.63;0.63;;;28.20;96.80;32.80;101601.00;;;;5036636;28;20547;-64